Observation data for Amherst on 10/14/2019      Previous  Date       Current Mesonet Observations  Soil Data  Daily Summary Page  Observations in Plain Language
KAMH 140500Z 24008KT 15/02 A2999 RMK A01 T01450023  RH  044%=      5-min Rain = 0
KAMH 140505Z 24009KT 14/02 A2999 RMK A01 T01440023  RH  045%=      5-min Rain = 0
KAMH 140510Z 24009KT 15/02 A2999 RMK A01 T01470023  RH  044%=      5-min Rain = 0
KAMH 140515Z 24008KT 15/02 A2999 RMK A01 T01490022  RH  043%=      5-min Rain = 0
KAMH 140520Z 24009KT 15/02 A2999 RMK A01 T01510021  RH  042%=      5-min Rain = 0
KAMH 140525Z 24009KT 15/02 A2999 RMK A01 T01500022  RH  043%=      5-min Rain = 0
KAMH 140530Z 24008KT 15/02 A2999 RMK A01 T01510021  RH  042%=      5-min Rain = 0
KAMH 140535Z 23008KT 15/02 A2999 RMK A01 T01510021  RH  042%=      5-min Rain = 0
KAMH 140540Z 24007KT 15/02 A2999 RMK A01 T01500021  RH  042%=      5-min Rain = 0
KAMH 140545Z 24007KT 15/02 A2999 RMK A01 T01470022  RH  044%=      5-min Rain = 0
KAMH 140550Z 24007KT 14/02 A2999 RMK A01 T01430023  RH  045%=      5-min Rain = 0
KAMH 140555Z 23006KT 14/02 A2999 RMK A01 T01400024  RH  046%=      5-min Rain = 0
KAMH 140600Z 23005KT 14/03 A2999 RMK A01 T01350026  RH  048%=      5-min Rain = 0
KAMH 140605Z 23006KT 13/03 A2999 RMK A01 T01330026  RH  049%=      5-min Rain = 0
KAMH 140610Z 22006KT 13/03 A2999 RMK A01 T01270028  RH  052%=      5-min Rain = 0
KAMH 140615Z 22006KT 12/03 A2999 RMK A01 T01240030  RH  054%=      5-min Rain = 0
KAMH 140620Z 22006KT 13/03 A2999 RMK A01 T01270029  RH  052%=      5-min Rain = 0
KAMH 140625Z 23006KT 13/03 A2999 RMK A01 T01300028  RH  051%=      5-min Rain = 0
KAMH 140630Z 22006KT 13/03 A2999 RMK A01 T01290028  RH  051%=      5-min Rain = 0
KAMH 140635Z 23007KT 13/03 A2998 RMK A01 T01290028  RH  051%=      5-min Rain = 0
KAMH 140640Z 23007KT 13/03 A2998 RMK A01 T01290028  RH  051%=      5-min Rain = 0
KAMH 140645Z 24007KT 13/03 A2998 RMK A01 T01300028  RH  051%=      5-min Rain = 0
KAMH 140650Z 24007KT 13/03 A2998 RMK A01 T01320027  RH  050%=      5-min Rain = 0
KAMH 140655Z 24007KT 13/03 A2998 RMK A01 T01320028  RH  050%=      5-min Rain = 0
KAMH 140700Z 24007KT 13/03 A2999 RMK A01 T01310028  RH  050%=      5-min Rain = 0
KAMH 140705Z 24007KT 13/03 A2999 RMK A01 T01310028  RH  050%=      5-min Rain = 0
KAMH 140710Z 24008KT 13/03 A2999 RMK A01 T01330027  RH  049%=      5-min Rain = 0
KAMH 140715Z 24007KT 14/03 A2999 RMK A01 T01350026  RH  049%=      5-min Rain = 0
KAMH 140720Z 23007KT 14/03 A2999 RMK A01 T01350026  RH  048%=      5-min Rain = 0
KAMH 140725Z 23007KT 13/03 A2999 RMK A01 T01340026  RH  049%=      5-min Rain = 0
KAMH 140730Z 23007KT 13/03 A2999 RMK A01 T01310027  RH  050%=      5-min Rain = 0
KAMH 140735Z 23007KT 13/03 A2999 RMK A01 T01310027  RH  050%=      5-min Rain = 0
KAMH 140740Z 24007KT 13/03 A2998 RMK A01 T01310027  RH  050%=      5-min Rain = 0
KAMH 140745Z 23007KT 13/03 A2999 RMK A01 T01320026  RH  049%=      5-min Rain = 0
KAMH 140750Z 23007KT 13/03 A2999 RMK A01 T01330025  RH  049%=      5-min Rain = 0
KAMH 140755Z 24007KT 13/03 A2999 RMK A01 T01310026  RH  049%=      5-min Rain = 0
KAMH 140800Z 24007KT 13/03 A2998 RMK A01 T01320026  RH  049%=      5-min Rain = 0
KAMH 140805Z 23007KT 13/03 A2998 RMK A01 T01320025  RH  049%=      5-min Rain = 0
KAMH 140810Z 23007KT 13/03 A2998 RMK A01 T01320025  RH  049%=      5-min Rain = 0
KAMH 140815Z 23007KT 13/03 A2998 RMK A01 T01310025  RH  049%=      5-min Rain = 0
KAMH 140820Z 24006KT 13/03 A2998 RMK A01 T01300026  RH  050%=      5-min Rain = 0
KAMH 140825Z 23006KT 13/03 A2998 RMK A01 T01290027  RH  051%=      5-min Rain = 0
KAMH 140830Z 17005KT 13/03 A2999 RMK A01 T01270029  RH  052%=      5-min Rain = 0
KAMH 140835Z 19006KT 11/03 A2998 RMK A01 T01120031  RH  058%=      5-min Rain = 0
KAMH 140840Z 22006KT 11/03 A2998 RMK A01 T01120032  RH  059%=      5-min Rain = 0
KAMH 140845Z 23005KT 12/03 A2998 RMK A01 T01150032  RH  058%=      5-min Rain = 0
KAMH 140850Z 22005KT 12/03 A2998 RMK A01 T01160033  RH  058%=      5-min Rain = 0
KAMH 140855Z 24006KT 12/03 A2998 RMK A01 T01200033  RH  056%=      5-min Rain = 0
KAMH 140900Z 23006KT 12/03 A2998 RMK A01 T01240033  RH  055%=      5-min Rain = 0
KAMH 140905Z 21005KT 12/03 A2998 RMK A01 T01220034  RH  056%=      5-min Rain = 0
KAMH 140910Z 21005KT 12/04 A2998 RMK A01 T01180035  RH  058%=      5-min Rain = 0
KAMH 140915Z 22006KT 12/04 A2998 RMK A01 T01230036  RH  057%=      5-min Rain = 0
KAMH 140920Z 22006KT 13/04 A2998 RMK A01 T01270036  RH  055%=      5-min Rain = 0
KAMH 140925Z 21005KT 13/04 A2998 RMK A01 T01260037  RH  056%=      5-min Rain = 0
KAMH 140930Z 22005KT 13/04 A2998 RMK A01 T01270038  RH  055%=      5-min Rain = 0
KAMH 140935Z 24005KT 13/04 A2998 RMK A01 T01280037  RH  055%=      5-min Rain = 0
KAMH 140940Z 25004KT 12/04 A2998 RMK A01 T01230040  RH  058%=      5-min Rain = 0
KAMH 140945Z 25005KT 11/04 A2998 RMK A01 T01140043  RH  063%=      5-min Rain = 0
KAMH 140950Z 28004KT 11/04 A2998 RMK A01 T01100044  RH  065%=      5-min Rain = 0
KAMH 140955Z 31006KT 10/04 A2998 RMK A01 T01030044  RH  069%=      5-min Rain = 0
KAMH 141000Z 31002G7KT 10/04 A2998 RMK A01 T01000044  RH  070%=      5-min Rain = 0
KAMH 141005Z 29003KT 10/04 A2998 RMK A01 T00970044  RH  071%=      5-min Rain = 0
KAMH 141010Z 27004KT 09/05 A2998 RMK A01 T00940046  RH  074%=      5-min Rain = 0
KAMH 141015Z 26005KT 09/05 A2998 RMK A01 T00930047  RH  074%=      5-min Rain = 0
KAMH 141020Z 26005KT 09/05 A2998 RMK A01 T00940047  RH  074%=      5-min Rain = 0
KAMH 141025Z 28006KT 09/05 A2998 RMK A01 T00940049  RH  075%=      5-min Rain = 0
KAMH 141030Z 27005KT 10/05 A2998 RMK A01 T00970050  RH  074%=      5-min Rain = 0
KAMH 141035Z 27005KT 10/05 A2998 RMK A01 T01000050  RH  073%=      5-min Rain = 0
KAMH 141040Z 28005KT 10/05 A2998 RMK A01 T01010051  RH  073%=      5-min Rain = 0
KAMH 141045Z 28004KT 10/05 A2998 RMK A01 T00990052  RH  074%=      5-min Rain = 0
KAMH 141050Z 28005KT 10/05 A2998 RMK A01 T00980053  RH  076%=      5-min Rain = 0
KAMH 141055Z 28004KT 10/05 A2998 RMK A01 T00980054  RH  076%=      5-min Rain = 0
KAMH 141100Z 28005KT 10/06 A2998 RMK A01 T00980055  RH  076%=      5-min Rain = 0
KAMH 141105Z 28004KT 10/06 A2998 RMK A01 T00980055  RH  076%=      5-min Rain = 0
KAMH 141110Z 28004KT 10/06 A2999 RMK A01 T00980055  RH  076%=      5-min Rain = 0
KAMH 141115Z 28004KT 10/05 A2999 RMK A01 T00980054  RH  076%=      5-min Rain = 0
KAMH 141120Z 28005KT 10/06 A2999 RMK A01 T00980055  RH  076%=      5-min Rain = 0
KAMH 141125Z 28005KT 10/06 A2999 RMK A01 T00990055  RH  076%=      5-min Rain = 0
KAMH 141130Z 26005KT 10/06 A2999 RMK A01 T01000056  RH  076%=      5-min Rain = 0
KAMH 141135Z 26005KT 10/06 A2999 RMK A01 T00990056  RH  076%=      5-min Rain = 0
KAMH 141140Z 26005KT 10/06 A2999 RMK A01 T01000056  RH  076%=      5-min Rain = 0
KAMH 141145Z 28005KT 10/06 A2999 RMK A01 T01010056  RH  076%=      5-min Rain = 0
KAMH 141150Z 28005KT 10/06 A30 RMK A01 T01010056  RH  076%=      5-min Rain = 0
KAMH 141155Z 27005KT 10/06 A30 RMK A01 T00990058  RH  078%=      5-min Rain = 0
KAMH 141200Z 28005KT 10/06 A30 RMK A01 T00960060  RH  080%=      5-min Rain = 0
KAMH 141205Z 28005KT 10/06 A30 RMK A01 T00960060  RH  080%=      5-min Rain = 0
KAMH 141210Z 28005KT 10/06 A30 RMK A01 T00970058  RH  078%=      5-min Rain = 0
KAMH 141215Z 28004KT 10/06 A30 RMK A01 T00970058  RH  078%=      5-min Rain = 0
KAMH 141220Z 29004KT 10/06 A30 RMK A01 T00960060  RH  080%=      5-min Rain = 0
KAMH 141225Z 30005KT 10/06 A30 RMK A01 T00970059  RH  079%=      5-min Rain = 0
KAMH 141230Z 29005KT 10/06 A30 RMK A01 T00970059  RH  080%=      5-min Rain = 0
KAMH 141235Z 29004KT 10/06 A30 RMK A01 T00950061  RH  081%=      5-min Rain = 0
KAMH 141240Z 29005KT 10/06 A30 RMK A01 T00950061  RH  081%=      5-min Rain = 0
KAMH 141245Z 30005KT 10/06 A30 RMK A01 T00950060  RH  081%=      5-min Rain = 0
KAMH 141250Z 30005KT 10/06 A30 RMK A01 T00950059  RH  080%=      5-min Rain = 0
KAMH 141255Z 29004KT 10/06 A30 RMK A01 T00950058  RH  079%=      5-min Rain = 0
KAMH 141300Z 29004KT 09/06 A30 RMK A01 T00930059  RH  081%=      5-min Rain = 0
KAMH 141305Z 28004KT 09/06 A30 RMK A01 T00920059  RH  082%=      5-min Rain = 0
KAMH 141310Z 27004KT 09/06 A30 RMK A01 T00920058  RH  081%=      5-min Rain = 0
KAMH 141315Z 26004KT 09/06 A3001 RMK A01 T00930058  RH  080%=      5-min Rain = 0
KAMH 141320Z 25006KT 10/06 A3001 RMK A01 T00950058  RH  080%=      5-min Rain = 0
KAMH 141325Z 25005KT 10/06 A3001 RMK A01 T00980058  RH  078%=      5-min Rain = 0
KAMH 141330Z 25005KT 10/06 A3001 RMK A01 T01020057  RH  075%=      5-min Rain = 0
KAMH 141335Z 26005KT 10/06 A30 RMK A01 T01040059  RH  075%=      5-min Rain = 0
KAMH 141340Z 27005KT 11/06 A3001 RMK A01 T01070059  RH  074%=      5-min Rain = 0
KAMH 141345Z 25004KT 11/06 A3001 RMK A01 T01080059  RH  074%=      5-min Rain = 0
KAMH 141350Z 18003KT 11/06 A3001 RMK A01 T01110061  RH  073%=      5-min Rain = 0
KAMH 141355Z 18003KT 12/06 A3001 RMK A01 T01160063  RH  072%=      5-min Rain = 0
KAMH 141400Z 26003KT 12/06 A3001 RMK A01 T01180061  RH  070%=      5-min Rain = 0
KAMH 141405Z 27005KT 12/06 A3001 RMK A01 T01210060  RH  068%=      5-min Rain = 0
KAMH 141410Z 27005KT 12/06 A3001 RMK A01 T01220060  RH  067%=      5-min Rain = 0
KAMH 141415Z 27004KT 12/06 A3002 RMK A01 T01210060  RH  068%=      5-min Rain = 0
KAMH 141420Z 27003KT 12/06 A3002 RMK A01 T01200064  RH  070%=      5-min Rain = 0
KAMH 141425Z 27003KT 12/07 A3002 RMK A01 T01200066  RH  071%=      5-min Rain = 0
KAMH 141430Z 27003KT 13/07 A3003 RMK A01 T01250070  RH  071%=      5-min Rain = 0
KAMH 141435Z 25003KT 13/07 A3003 RMK A01 T01310069  RH  067%=      5-min Rain = 0
KAMH 141440Z 25002KT 13/07 A3003 RMK A01 T01330069  RH  067%=      5-min Rain = 0
KAMH 141445Z 25002KT 14/07 A3003 RMK A01 T01400071  RH  065%=      5-min Rain = 0
KAMH 141450Z 25004KT 15/07 A3003 RMK A01 T01510070  RH  060%=      5-min Rain = 0
KAMH 141455Z 25003KT 16/07 A3003 RMK A01 T01580071  RH  058%=      5-min Rain = 0
KAMH 141500Z 24002KT 16/07 A3003 RMK A01 T01600071  RH  057%=      5-min Rain = 0
KAMH 141505Z 23001KT 16/07 A3003 RMK A01 T01610072  RH  057%=      5-min Rain = 0
KAMH 141510Z 25002KT 17/08 A3003 RMK A01 T01660075  RH  056%=      5-min Rain = 0
KAMH 141515Z 27004KT 18/07 A3003 RMK A01 T01750067  RH  050%=      5-min Rain = 0
KAMH 141520Z 28003KT 18/07 A3003 RMK A01 T01800071  RH  050%=      5-min Rain = 0
KAMH 141525Z 28003KT 19/07 A3003 RMK A01 T01880073  RH  048%=      5-min Rain = 0
KAMH 141530Z 28004KT 19/07 A3003 RMK A01 T01930069  RH  046%=      5-min Rain = 0
KAMH 141535Z 28005KT 20/06 A3003 RMK A01 T02000063  RH  042%=      5-min Rain = 0
KAMH 141540Z 27005KT 21/06 A3003 RMK A01 T02090058  RH  038%=      5-min Rain = 0
KAMH 141545Z 26005KT 21/06 A3003 RMK A01 T02130059  RH  037%=      5-min Rain = 0
KAMH 141550Z 26006KT 22/05 A3003 RMK A01 T02180050  RH  034%=      5-min Rain = 0
KAMH 141555Z 27006KT 22/05 A3003 RMK A01 T02210046  RH  033%=      5-min Rain = 0
KAMH 141600Z 29007KT 23/05 A3003 RMK A01 T02260046  RH  031%=      5-min Rain = 0
KAMH 141605Z 26006KT 23/05 A3003 RMK A01 T02280048  RH  032%=      5-min Rain = 0
KAMH 141610Z 26008KT 23/05 A3003 RMK A01 T02300049  RH  031%=      5-min Rain = 0
KAMH 141615Z 27007KT 23/05 A3003 RMK A01 T02290047  RH  031%=      5-min Rain = 0
KAMH 141620Z 26006KT 23/05 A3002 RMK A01 T02310052  RH  032%=      5-min Rain = 0
KAMH 141625Z 26006KT 23/06 A3002 RMK A01 T02330055  RH  032%=      5-min Rain = 0
KAMH 141630Z 27006KT 24/06 A3002 RMK A01 T02380058  RH  032%=      5-min Rain = 0
KAMH 141635Z 24005KT 24/06 A3002 RMK A01 T02380056  RH  032%=      5-min Rain = 0
KAMH 141640Z 23005KT 24/06 A3002 RMK A01 T02370057  RH  032%=      5-min Rain = 0
KAMH 141645Z 22006KT 24/06 A3002 RMK A01 T02380058  RH  032%=      5-min Rain = 0
KAMH 141650Z 24005KT 24/06 A3002 RMK A01 T02390061  RH  032%=      5-min Rain = 0
KAMH 141655Z 24006KT 24/06 A3002 RMK A01 T02420059  RH  032%=      5-min Rain = 0
KAMH 141700Z 24006KT 24/06 A3001 RMK A01 T02410058  RH  031%=      5-min Rain = 0
KAMH 141705Z 24006KT 24/06 A3001 RMK A01 T02440059  RH  031%=      5-min Rain = 0
KAMH 141710Z 24006KT 25/06 A3001 RMK A01 T02470056  RH  030%=      5-min Rain = 0
KAMH 141715Z 26007KT 25/06 A3001 RMK A01 T02470057  RH  030%=      5-min Rain = 0
KAMH 141720Z 25007KT 25/05 A3001 RMK A01 T02460052  RH  029%=      5-min Rain = 0
KAMH 141725Z 25006KT 25/06 A30 RMK A01 T02490057  RH  030%=      5-min Rain = 0
KAMH 141730Z 26006KT 25/06 A30 RMK A01 T02520058  RH  030%=      5-min Rain = 0
KAMH 141735Z 26006KT 25/06 A30 RMK A01 T02540061  RH  030%=      5-min Rain = 0
KAMH 141740Z 25006KT 26/06 A30 RMK A01 T02570058  RH  029%=      5-min Rain = 0
KAMH 141745Z 25006KT 26/05 A30 RMK A01 T02600048  RH  026%=      5-min Rain = 0
KAMH 141750Z 24005KT 26/05 A2999 RMK A01 T02620048  RH  026%=      5-min Rain = 0
KAMH 141755Z 26005KT 27/05 A2999 RMK A01 T02650050  RH  026%=      5-min Rain = 0
KAMH 141800Z 23004KT 27/05 A2999 RMK A01 T02650046  RH  025%=      5-min Rain = 0
KAMH 141805Z 20003KT 27/04 A2999 RMK A01 T02680038  RH  023%=      5-min Rain = 0
KAMH 141810Z 23004G10KT 27/04 A2999 RMK A01 T02680039  RH  023%=      5-min Rain = 0
KAMH 141815Z 19004KT 27/03 A2998 RMK A01 T02700027  RH  021%=      5-min Rain = 0
KAMH 141820Z 22005KT 27/04 A2998 RMK A01 T02730037  RH  022%=      5-min Rain = 0
KAMH 141825Z 23005KT 27/04 A2998 RMK A01 T02720036  RH  022%=      5-min Rain = 0
KAMH 141830Z 21006KT 28/03 A2998 RMK A01 T02760026  RH  020%=      5-min Rain = 0
KAMH 141835Z 24007KT 28/03 A2998 RMK A01 T02750027  RH  021%=      5-min Rain = 0
KAMH 141840Z 23008KT 28/03 A2997 RMK A01 T02760034  RH  022%=      5-min Rain = 0
KAMH 141845Z 19005G10KT 28/04 A2997 RMK A01 T02780038  RH  022%=      5-min Rain = 0
KAMH 141850Z 24008KT 28/04 A2997 RMK A01 T02770037  RH  022%=      5-min Rain = 0
KAMH 141855Z 23008G13KT 28/04 A2996 RMK A01 T02770037  RH  022%=      5-min Rain = 0
KAMH 141900Z 22008KT 28/04 A2996 RMK A01 T02770038  RH  022%=      5-min Rain = 0
KAMH 141905Z 19005G10KT 28/04 A2996 RMK A01 T02800040  RH  022%=      5-min Rain = 0
KAMH 141910Z 20007KT 28/04 A2996 RMK A01 T02840041  RH  022%=      5-min Rain = 0
KAMH 141915Z 21010KT 28/04 A2995 RMK A01 T02820037  RH  021%=      5-min Rain = 0
KAMH 141920Z 20010KT 28/04 A2995 RMK A01 T02810036  RH  021%=      5-min Rain = 0
KAMH 141925Z 21009G14KT 28/04 A2995 RMK A01 T02830038  RH  021%=      5-min Rain = 0
KAMH 141930Z 22007G15KT 28/04 A2995 RMK A01 T02830036  RH  021%=      5-min Rain = 0
KAMH 141935Z 22010KT 28/03 A2994 RMK A01 T02810034  RH  021%=      5-min Rain = 0
KAMH 141940Z 22011KT 28/04 A2994 RMK A01 T02820036  RH  021%=      5-min Rain = 0
KAMH 141945Z 22008G14KT 28/03 A2994 RMK A01 T02800033  RH  021%=      5-min Rain = 0
KAMH 141950Z 21011KT 28/04 A2993 RMK A01 T02830038  RH  021%=      5-min Rain = 0
KAMH 141955Z 22010G15KT 28/04 A2993 RMK A01 T02830037  RH  021%=      5-min Rain = 0
KAMH 142000Z 24009KT 28/04 A2993 RMK A01 T02810037  RH  021%=      5-min Rain = 0
KAMH 142005Z 20009G15KT 28/04 A2993 RMK A01 T02820042  RH  022%=      5-min Rain = 0
KAMH 142010Z 20007G14KT 28/04 A2993 RMK A01 T02820044  RH  022%=      5-min Rain = 0
KAMH 142015Z 24009KT 29/04 A2993 RMK A01 T02850041  RH  021%=      5-min Rain = 0
KAMH 142020Z 24008KT 29/04 A2992 RMK A01 T02850043  RH  022%=      5-min Rain = 0
KAMH 142025Z 24008G13KT 28/04 A2992 RMK A01 T02820041  RH  022%=      5-min Rain = 0
KAMH 142030Z 24011G17KT 28/04 A2992 RMK A01 T02820044  RH  022%=      5-min Rain = 0
KAMH 142035Z 23009G14KT 28/05 A2992 RMK A01 T02840046  RH  022%=      5-min Rain = 0
KAMH 142040Z 21009G14KT 29/05 A2992 RMK A01 T02850049  RH  023%=      5-min Rain = 0
KAMH 142045Z 23010G16KT 28/04 A2991 RMK A01 T02840041  RH  022%=      5-min Rain = 0
KAMH 142050Z 23009G15KT 28/04 A2991 RMK A01 T02830044  RH  022%=      5-min Rain = 0
KAMH 142055Z 22008G13KT 28/05 A2991 RMK A01 T02840046  RH  022%=      5-min Rain = 0
KAMH 142100Z 24009KT 29/05 A2991 RMK A01 T02850048  RH  023%=      5-min Rain = 0
KAMH 142105Z 21006KT 29/05 A2991 RMK A01 T02850050  RH  023%=      5-min Rain = 0
KAMH 142110Z 20009G15KT 29/05 A2991 RMK A01 T02860050  RH  023%=      5-min Rain = 0
KAMH 142115Z 22008KT 28/05 A2991 RMK A01 T02840046  RH  022%=      5-min Rain = 0
KAMH 142120Z 23009G15KT 28/05 A2991 RMK A01 T02840047  RH  022%=      5-min Rain = 0
KAMH 142125Z 21008G13KT 28/05 A2991 RMK A01 T02840047  RH  023%=      5-min Rain = 0
KAMH 142130Z 21006KT 29/05 A2991 RMK A01 T02860048  RH  022%=      5-min Rain = 0
KAMH 142135Z 22008G13KT 29/05 A2991 RMK A01 T02860048  RH  022%=      5-min Rain = 0
KAMH 142140Z 20010KT 29/05 A2991 RMK A01 T02850048  RH  023%=      5-min Rain = 0
KAMH 142145Z 20008KT 28/04 A2991 RMK A01 T02830043  RH  022%=      5-min Rain = 0
KAMH 142150Z 21010KT 28/04 A2991 RMK A01 T02820044  RH  022%=      5-min Rain = 0
KAMH 142155Z 22008G14KT 28/05 A2991 RMK A01 T02840050  RH  023%=      5-min Rain = 0
KAMH 142200Z 22009KT 28/05 A2991 RMK A01 T02820050  RH  023%=      5-min Rain = 0
KAMH 142205Z 21007G14KT 28/05 A2991 RMK A01 T02810050  RH  023%=      5-min Rain = 0
KAMH 142210Z 20010G15KT 28/05 A299 RMK A01 T02820049  RH  023%=      5-min Rain = 0
KAMH 142215Z 20011G16KT 28/05 A299 RMK A01 T02810052  RH  024%=      5-min Rain = 0
KAMH 142220Z 20009KT 28/05 A299 RMK A01 T02790054  RH  024%=      5-min Rain = 0
KAMH 142225Z 21009KT 28/05 A299 RMK A01 T02790053  RH  024%=      5-min Rain = 0
KAMH 142230Z 22009KT 28/05 A2991 RMK A01 T02780053  RH  024%=      5-min Rain = 0
KAMH 142235Z 21011KT 28/05 A2991 RMK A01 T02780050  RH  024%=      5-min Rain = 0
KAMH 142240Z 21011KT 28/05 A2991 RMK A01 T02760049  RH  024%=      5-min Rain = 0
KAMH 142245Z 23008KT 28/05 A2991 RMK A01 T02760053  RH  025%=      5-min Rain = 0
KAMH 142250Z 23008KT 28/05 A2991 RMK A01 T02760052  RH  025%=      5-min Rain = 0
KAMH 142255Z 20011KT 28/05 A2991 RMK A01 T02750053  RH  025%=      5-min Rain = 0
KAMH 142300Z 20009KT 27/05 A299 RMK A01 T02730054  RH  025%=      5-min Rain = 0
KAMH 142305Z 21010KT 27/05 A299 RMK A01 T02720054  RH  026%=      5-min Rain = 0
KAMH 142310Z 21009G14KT 27/06 A299 RMK A01 T02710057  RH  026%=      5-min Rain = 0
KAMH 142315Z 21009KT 27/06 A299 RMK A01 T02700058  RH  026%=      5-min Rain = 0
KAMH 142320Z 21009KT 27/06 A299 RMK A01 T02680058  RH  027%=      5-min Rain = 0
KAMH 142325Z 21009KT 27/06 A299 RMK A01 T02670056  RH  027%=      5-min Rain = 0
KAMH 142330Z 20008KT 27/06 A299 RMK A01 T02650056  RH  027%=      5-min Rain = 0
KAMH 142335Z 20007KT 26/06 A299 RMK A01 T02630059  RH  028%=      5-min Rain = 0
KAMH 142340Z 21008KT 26/06 A2991 RMK A01 T02590061  RH  029%=      5-min Rain = 0
KAMH 142345Z 21008KT 26/06 A2991 RMK A01 T02570061  RH  029%=      5-min Rain = 0
KAMH 142350Z 21007KT 25/06 A2991 RMK A01 T02540060  RH  029%=      5-min Rain = 0
KAMH 142355Z 20007KT 25/06 A2991 RMK A01 T02510060  RH  030%=      5-min Rain = 0
KAMH 150000Z 21007KT 25/06 A2991 RMK A01 T02480061  RH  031%=      5-min Rain = 0
KAMH 150005Z 21007KT 24/06 A2991 RMK A01 T02430062  RH  032%=      5-min Rain = 0
KAMH 150010Z 21007KT 24/06 A2991 RMK A01 T02410061  RH  032%=      5-min Rain = 0
KAMH 150015Z 21007KT 24/06 A2991 RMK A01 T02370062  RH  033%=      5-min Rain = 0
KAMH 150020Z 21006KT 23/06 A2991 RMK A01 T02320063  RH  034%=      5-min Rain = 0
KAMH 150025Z 21006KT 23/06 A2991 RMK A01 T02300064  RH  035%=      5-min Rain = 0
KAMH 150030Z 21006KT 23/06 A2991 RMK A01 T02270064  RH  036%=      5-min Rain = 0
KAMH 150035Z 21006KT 22/07 A2991 RMK A01 T02240066  RH  037%=      5-min Rain = 0
KAMH 150040Z 21007KT 22/07 A2991 RMK A01 T02210066  RH  038%=      5-min Rain = 0
KAMH 150045Z 21006KT 22/07 A2991 RMK A01 T02180067  RH  039%=      5-min Rain = 0
KAMH 150050Z 21006KT 21/07 A2992 RMK A01 T02140068  RH  040%=      5-min Rain = 0
KAMH 150055Z 21006KT 21/07 A2992 RMK A01 T02100069  RH  041%=      5-min Rain = 0
KAMH 150100Z 21006KT 21/07 A2992 RMK A01 T02100069  RH  041%=      5-min Rain = 0
KAMH 150105Z 20006KT 21/07 A2992 RMK A01 T02080070  RH  042%=      5-min Rain = 0
KAMH 150110Z 20006KT 21/07 A2992 RMK A01 T02060071  RH  042%=      5-min Rain = 0
KAMH 150115Z 20006KT 20/07 A2993 RMK A01 T02030071  RH  044%=      5-min Rain = 0
KAMH 150120Z 21007KT 20/07 A2993 RMK A01 T02030072  RH  044%=      5-min Rain = 0
KAMH 150125Z 22007KT 21/07 A2993 RMK A01 T02060071  RH  043%=      5-min Rain = 0
KAMH 150130Z 21008KT 21/07 A2993 RMK A01 T02060072  RH  043%=      5-min Rain = 0
KAMH 150135Z 21009KT 21/07 A2993 RMK A01 T02080071  RH  042%=      5-min Rain = 0
KAMH 150140Z 21008KT 21/07 A2994 RMK A01 T02060073  RH  043%=      5-min Rain = 0
KAMH 150145Z 21009KT 21/08 A2994 RMK A01 T02060075  RH  044%=      5-min Rain = 0
KAMH 150150Z 20007KT 20/08 A2994 RMK A01 T02020076  RH  045%=      5-min Rain = 0
KAMH 150155Z 20007KT 20/08 A2994 RMK A01 T01950077  RH  048%=      5-min Rain = 0
KAMH 150200Z 21009KT 20/08 A2994 RMK A01 T01950079  RH  048%=      5-min Rain = 0
KAMH 150205Z 20009KT 20/08 A2994 RMK A01 T01960080  RH  048%=      5-min Rain = 0
KAMH 150210Z 21009KT 20/08 A2994 RMK A01 T01960082  RH  049%=      5-min Rain = 0
KAMH 150215Z 21009KT 20/08 A2994 RMK A01 T01950082  RH  049%=      5-min Rain = 0
KAMH 150220Z 21009KT 20/08 A2994 RMK A01 T01950083  RH  050%=      5-min Rain = 0
KAMH 150225Z 21008KT 19/08 A2994 RMK A01 T01930083  RH  051%=      5-min Rain = 0
KAMH 150230Z 21008KT 19/08 A2994 RMK A01 T01910084  RH  052%=      5-min Rain = 0
KAMH 150235Z 22008KT 19/09 A2995 RMK A01 T01900085  RH  052%=      5-min Rain = 0
KAMH 150240Z 22008KT 19/09 A2995 RMK A01 T01870085  RH  053%=      5-min Rain = 0
KAMH 150245Z 22007KT 18/09 A2995 RMK A01 T01830085  RH  054%=      5-min Rain = 0
KAMH 150250Z 22008KT 18/09 A2995 RMK A01 T01830085  RH  054%=      5-min Rain = 0
KAMH 150255Z 21007KT 18/08 A2995 RMK A01 T01810084  RH  055%=      5-min Rain = 0
KAMH 150300Z 21007KT 18/08 A2995 RMK A01 T01800084  RH  055%=      5-min Rain = 0
KAMH 150305Z 21006KT 18/08 A2995 RMK A01 T01770084  RH  056%=      5-min Rain = 0
KAMH 150310Z 22007KT 18/08 A2996 RMK A01 T01750083  RH  057%=      5-min Rain = 0
KAMH 150315Z 22008KT 17/08 A2996 RMK A01 T01740083  RH  057%=      5-min Rain = 0
KAMH 150320Z 22008KT 17/08 A2996 RMK A01 T01740082  RH  056%=      5-min Rain = 0
KAMH 150325Z 22008KT 17/08 A2996 RMK A01 T01730082  RH  057%=      5-min Rain = 0
KAMH 150330Z 21007KT 17/08 A2996 RMK A01 T01710082  RH  057%=      5-min Rain = 0
KAMH 150335Z 21007KT 17/08 A2996 RMK A01 T01690081  RH  058%=      5-min Rain = 0
KAMH 150340Z 21006KT 17/08 A2997 RMK A01 T01660081  RH  059%=      5-min Rain = 0
KAMH 150345Z 22006KT 16/08 A2997 RMK A01 T01640080  RH  059%=      5-min Rain = 0
KAMH 150350Z 22006KT 16/08 A2997 RMK A01 T01630079  RH  059%=      5-min Rain = 0
KAMH 150355Z 21006KT 16/08 A2997 RMK A01 T01610079  RH  060%=      5-min Rain = 0
KAMH 150400Z 20006KT 16/08 A2997 RMK A01 T01580079  RH  061%=      5-min Rain = 0
KAMH 150405Z 21006KT 16/08 A2997 RMK A01 T01560079  RH  062%=      5-min Rain = 0
KAMH 150410Z 21006KT 16/08 A2997 RMK A01 T01570079  RH  061%=      5-min Rain = 0
KAMH 150415Z 21006KT 16/08 A2997 RMK A01 T01560078  RH  061%=      5-min Rain = 0
KAMH 150420Z 21006KT 16/08 A2997 RMK A01 T01550078  RH  061%=      5-min Rain = 0
KAMH 150425Z 22005KT 16/08 A2997 RMK A01 T01550077  RH  061%=      5-min Rain = 0
KAMH 150430Z 21006KT 15/08 A2997 RMK A01 T01540077  RH  062%=      5-min Rain = 0
KAMH 150435Z 22006KT 15/08 A2997 RMK A01 T01540076  RH  061%=      5-min Rain = 0
KAMH 150440Z 22006KT 15/08 A2997 RMK A01 T01540075  RH  061%=      5-min Rain = 0
KAMH 150445Z 23007KT 15/08 A2997 RMK A01 T01530075  RH  061%=      5-min Rain = 0
KAMH 150450Z 23007KT 15/08 A2997 RMK A01 T01540075  RH  061%=      5-min Rain = 0
KAMH 150455Z 23007KT 15/08 A2997 RMK A01 T01530075  RH  062%=      5-min Rain = 0

Page generated in 0.0156 seconds.